Aviation Digital Data Service (ADDS)

Output produced by METARs form (1107 UTC 03 March 2015)
found at http://aviationweather.gov/adds/metars/
 
KDET 030533Z 0306/0406 VRB04KT P6SM BKN150 
     FM031200 14008KT P6SM BKN050 
     FM031400 14012KT 1SM -SN BR OVC015 
     FM031700 15012KT 1SM -FZRA BR BKN008 OVC015 
     FM032000 17013KT 3SM -RA BR OVC008 
     FM032300 21015KT 2SM -DZ BR OVC007 
     FM040400 25013KT 6SM BR OVC015